createdAt,value
2023-05-10T00:00:58.540Z,10.91
2023-05-10T00:03:26.968Z,10.83
2023-05-10T00:05:54.655Z,10.45
2023-05-10T00:08:22.221Z,10.64
2023-05-10T00:10:50.351Z,10.63
2023-05-10T00:13:17.813Z,10.56
2023-05-10T00:15:45.434Z,10.47
2023-05-10T00:18:13.246Z,10.45
2023-05-10T00:20:40.779Z,10.45
2023-05-10T00:23:08.276Z,10.37
2023-05-10T00:25:36.115Z,10.35
2023-05-10T00:28:03.728Z,10.32
2023-05-10T00:30:31.414Z,10.29
2023-05-10T00:32:59.214Z,10.21
2023-05-10T00:35:27.758Z,10.17
2023-05-10T00:37:55.562Z,10.16
2023-05-10T00:40:23.375Z,10.11
2023-05-10T00:42:51.633Z,10.10
2023-05-10T00:45:19.404Z,9.80
2023-05-10T00:47:47.246Z,10.06
2023-05-10T00:50:16.662Z,10.06
2023-05-10T00:52:44.970Z,9.99
2023-05-10T00:55:13.352Z,9.97
2023-05-10T00:57:41.030Z,9.86
2023-05-10T01:00:09.112Z,9.87
2023-05-10T01:02:37.003Z,9.83
2023-05-10T01:05:04.968Z,9.82
2023-05-10T01:07:32.492Z,9.78
2023-05-10T01:10:00.899Z,9.56
2023-05-10T01:12:28.703Z,9.60
2023-05-10T01:14:56.314Z,9.66
2023-05-10T01:17:24.201Z,9.35
2023-05-10T01:19:52.350Z,9.45
2023-05-10T01:22:25.961Z,9.41
2023-05-10T01:25:17.893Z,9.31
2023-05-10T01:27:55.478Z,9.24
2023-05-10T01:30:45.510Z,9.24
2023-05-10T01:33:29.861Z,9.09
2023-05-10T01:36:17.353Z,9.05
2023-05-10T01:38:57.894Z,8.87
2023-05-10T01:41:42.889Z,8.90
2023-05-10T01:44:13.156Z,8.86
2023-05-10T01:46:41.948Z,8.48
2023-05-10T01:49:15.039Z,8.72
2023-05-10T01:51:49.926Z,8.58
2023-05-10T01:54:20.397Z,8.27
2023-05-10T01:57:05.027Z,8.21
2023-05-10T01:59:41.620Z,8.01
2023-05-10T02:02:12.878Z,8.33
2023-05-10T02:04:43.270Z,8.34
2023-05-10T02:07:11.668Z,8.40
2023-05-10T02:09:39.590Z,8.38
2023-05-10T02:12:09.412Z,8.24
2023-05-10T02:14:38.287Z,8.21
2023-05-10T02:17:08.761Z,8.32
2023-05-10T02:19:40.267Z,8.28
2023-05-10T02:22:10.017Z,8.13
2023-05-10T02:24:39.510Z,7.90
2023-05-10T02:27:08.349Z,8.23
2023-05-10T02:29:38.028Z,8.34
2023-05-10T02:32:07.292Z,8.19
2023-05-10T02:34:34.984Z,8.16
2023-05-10T02:37:03.754Z,8.22
2023-05-10T02:39:33.460Z,8.14
2023-05-10T02:42:03.338Z,8.26
2023-05-10T02:44:32.251Z,8.20
2023-05-10T02:46:59.951Z,8.16
2023-05-10T02:49:27.494Z,8.13
2023-05-10T02:52:01.045Z,8.17
2023-05-10T02:54:33.079Z,8.21
2023-05-10T02:57:03.981Z,7.96
2023-05-10T02:59:33.613Z,8.18
2023-05-10T03:02:02.977Z,7.88
2023-05-10T03:04:30.498Z,8.17
2023-05-10T03:06:58.743Z,8.15
2023-05-10T03:09:26.739Z,8.18
2023-05-10T03:12:16.681Z,8.13
2023-05-10T03:15:34.362Z,8.24
2023-05-10T03:18:16.365Z,8.15
2023-05-10T03:20:49.416Z,8.10
2023-05-10T03:23:36.542Z,8.20
2023-05-10T03:26:06.374Z,8.17
2023-05-10T03:28:36.459Z,8.19
2023-05-10T03:31:07.149Z,8.22
2023-05-10T03:33:34.858Z,8.26
2023-05-10T03:36:02.335Z,8.21
2023-05-10T03:38:30.687Z,8.25
2023-05-10T03:40:58.391Z,8.27
2023-05-10T03:43:25.976Z,8.34
2023-05-10T03:45:53.736Z,8.36
2023-05-10T03:48:21.289Z,8.44
2023-05-10T03:50:50.332Z,8.55
2023-05-10T03:53:18.125Z,8.55
2023-05-10T03:55:45.915Z,8.34
2023-05-10T03:58:13.717Z,8.73
2023-05-10T04:00:44.804Z,8.78
2023-05-10T04:03:13.649Z,8.73
2023-05-10T04:05:41.212Z,8.95
2023-05-10T04:08:08.832Z,9.03
2023-05-10T04:10:36.764Z,8.82
2023-05-10T04:13:04.281Z,9.16
2023-05-10T04:15:31.794Z,9.18
2023-05-10T04:17:59.607Z,8.93
2023-05-10T04:20:27.224Z,9.25
2023-05-10T04:22:54.688Z,9.41
2023-05-10T04:25:22.404Z,9.56
2023-05-10T04:27:49.801Z,9.60
2023-05-10T04:30:17.675Z,9.70
2023-05-10T04:32:45.589Z,9.70
2023-05-10T04:35:13.190Z,9.84
2023-05-10T04:37:40.636Z,9.91
2023-05-10T04:40:09.298Z,9.92
2023-05-10T04:42:36.782Z,10.04
2023-05-10T04:45:04.659Z,10.18
2023-05-10T04:47:32.429Z,10.30
2023-05-10T04:50:00.052Z,10.42
2023-05-10T04:52:27.599Z,10.53
2023-05-10T04:54:55.517Z,10.63
2023-05-10T04:57:23.046Z,10.66
2023-05-10T04:59:50.675Z,10.77
2023-05-10T05:02:18.602Z,10.90
2023-05-10T05:04:46.148Z,11.05
2023-05-10T05:07:13.597Z,11.16
2023-05-10T05:09:41.403Z,11.25
2023-05-10T05:12:08.886Z,11.39
2023-05-10T05:14:36.690Z,11.52
2023-05-10T05:17:04.933Z,11.65
2023-05-10T05:19:32.769Z,11.72
2023-05-10T05:22:00.214Z,11.69
2023-05-10T05:24:27.926Z,11.83
2023-05-10T05:26:55.405Z,11.96
2023-05-10T05:29:22.837Z,11.96
2023-05-10T05:31:50.628Z,11.94
2023-05-10T05:34:18.509Z,11.96
2023-05-10T05:36:46.072Z,12.00
2023-05-10T05:39:14.443Z,11.98
2023-05-10T05:41:41.897Z,11.99
2023-05-10T05:44:09.472Z,12.12
2023-05-10T05:46:37.272Z,12.62
2023-05-10T05:49:10.608Z,12.81
2023-05-10T05:51:45.415Z,13.00
2023-05-10T05:54:13.242Z,13.19
2023-05-10T05:56:44.414Z,13.35
2023-05-10T05:59:12.785Z,13.52
2023-05-10T06:01:40.420Z,13.59
2023-05-10T06:04:08.685Z,13.71
2023-05-10T06:06:36.136Z,13.69
2023-05-10T06:09:03.681Z,13.84
2023-05-10T06:11:33.184Z,13.65
2023-05-10T06:14:00.776Z,13.77
2023-05-10T06:16:28.915Z,13.94
2023-05-10T06:18:56.640Z,13.49
2023-05-10T06:21:24.176Z,13.92
2023-05-10T06:23:51.839Z,14.11
2023-05-10T06:26:19.755Z,14.19
2023-05-10T06:28:47.278Z,14.19
2023-05-10T06:31:14.875Z,13.98
2023-05-10T06:33:42.677Z,13.92
2023-05-10T06:36:10.372Z,13.67
2023-05-10T06:38:38.315Z,14.15
2023-05-10T06:41:06.532Z,14.39
2023-05-10T06:43:34.050Z,14.52
2023-05-10T06:46:01.521Z,14.68
2023-05-10T06:48:30.012Z,14.64
2023-05-10T06:50:57.707Z,14.60
2023-05-10T06:53:45.063Z,14.73
2023-05-10T06:56:13.028Z,14.91
2023-05-10T06:58:40.558Z,15.26
2023-05-10T07:01:08.248Z,15.51
2023-05-10T07:03:36.354Z,15.70
2023-05-10T07:06:05.022Z,15.79
2023-05-10T07:08:32.746Z,16.20
2023-05-10T07:11:05.515Z,16.62
2023-05-10T07:13:33.272Z,16.39
2023-05-10T07:16:01.637Z,16.50
2023-05-10T07:18:29.402Z,16.71
2023-05-10T07:20:58.166Z,16.88
2023-05-10T07:23:26.106Z,16.63
2023-05-10T07:25:54.419Z,17.04
2023-05-10T07:28:22.004Z,16.94
2023-05-10T07:30:49.900Z,17.18
2023-05-10T07:33:17.512Z,16.98
2023-05-10T07:35:45.047Z,16.90
2023-05-10T07:38:12.856Z,17.38
2023-05-10T07:40:40.921Z,17.65
2023-05-10T07:43:08.520Z,17.07
2023-05-10T07:45:36.296Z,17.55
2023-05-10T07:48:04.189Z,17.25
2023-05-10T07:50:31.745Z,17.26
2023-05-10T07:52:59.557Z,17.32
2023-05-10T07:55:27.367Z,17.44
2023-05-10T07:57:56.302Z,17.46
2023-05-10T08:00:24.329Z,17.83
2023-05-10T08:02:52.422Z,17.92
2023-05-10T08:05:20.035Z,17.99
2023-05-10T08:07:47.570Z,17.86
2023-05-10T08:10:15.518Z,18.08
2023-05-10T08:12:43.020Z,18.16
2023-05-10T08:15:11.060Z,18.36
2023-05-10T08:17:38.827Z,18.43
2023-05-10T08:20:06.854Z,18.52
2023-05-10T08:22:34.336Z,18.61
2023-05-10T08:25:02.161Z,18.91
2023-05-10T08:27:29.685Z,19.09
2023-05-10T08:29:57.231Z,19.00
2023-05-10T08:32:25.141Z,19.18
2023-05-10T08:34:52.569Z,19.51
2023-05-10T08:37:20.091Z,19.21
2023-05-10T08:39:49.012Z,19.39
2023-05-10T08:42:22.960Z,19.45
2023-05-10T08:44:51.380Z,19.24
2023-05-10T08:47:19.687Z,19.43
2023-05-10T08:49:52.036Z,19.11
2023-05-10T08:52:19.929Z,18.78
2023-05-10T08:54:47.852Z,18.70
2023-05-10T08:57:16.027Z,18.75
2023-05-10T08:59:44.958Z,19.37
2023-05-10T09:02:15.176Z,19.54
2023-05-10T09:04:44.149Z,19.33
2023-05-10T09:07:12.367Z,19.06
2023-05-10T09:09:40.098Z,19.55
2023-05-10T09:12:12.203Z,19.82
2023-05-10T09:14:40.035Z,19.73
2023-05-10T09:17:08.053Z,19.90
2023-05-10T09:19:35.581Z,19.92
2023-05-10T09:22:03.542Z,19.63
2023-05-10T09:24:31.919Z,19.15
2023-05-10T09:26:59.640Z,19.71
2023-05-10T09:29:27.268Z,20.40
2023-05-10T09:31:58.173Z,21.20
2023-05-10T09:34:33.141Z,21.19
2023-05-10T09:37:02.516Z,20.91
2023-05-10T09:39:33.688Z,21.35
2023-05-10T09:42:05.009Z,21.87
2023-05-10T09:44:33.936Z,20.93
2023-05-10T09:47:03.623Z,20.46
2023-05-10T09:49:31.844Z,20.29
2023-05-10T09:52:09.340Z,20.70
2023-05-10T09:54:37.530Z,19.70
2023-05-10T09:57:05.312Z,19.42
2023-05-10T09:59:35.964Z,19.67
2023-05-10T10:02:04.088Z,19.44
2023-05-10T10:04:39.136Z,20.09
2023-05-10T10:07:06.755Z,20.33
2023-05-10T10:09:35.894Z,20.53
2023-05-10T10:12:03.888Z,21.14
2023-05-10T10:14:31.554Z,21.53
2023-05-10T10:17:08.061Z,21.61
2023-05-10T10:19:37.619Z,21.27
2023-05-10T10:22:06.983Z,21.61
2023-05-10T10:24:34.731Z,21.52
2023-05-10T10:27:16.327Z,20.89
2023-05-10T10:30:02.917Z,20.87
2023-05-10T10:32:39.832Z,20.96
2023-05-10T10:35:08.839Z,20.62
2023-05-10T10:37:45.591Z,20.43
2023-05-10T10:40:33.589Z,20.37
2023-05-10T10:43:25.275Z,20.55
2023-05-10T10:46:13.379Z,20.94
2023-05-10T10:49:09.187Z,21.99
2023-05-10T10:51:40.590Z,22.39
2023-05-10T10:54:11.581Z,21.69
2023-05-10T10:56:39.459Z,21.58
2023-05-10T10:59:08.562Z,21.56
2023-05-10T11:01:36.491Z,21.42
2023-05-10T11:04:04.478Z,20.71
2023-05-10T11:06:36.992Z,21.28
2023-05-10T11:09:09.679Z,21.76
2023-05-10T11:11:49.097Z,21.75
2023-05-10T11:14:22.638Z,22.04
2023-05-10T11:16:50.408Z,21.71
2023-05-10T11:19:19.424Z,21.73
2023-05-10T11:21:52.312Z,22.25
2023-05-10T11:24:23.865Z,21.69
2023-05-10T11:26:54.940Z,21.98
2023-05-10T11:29:23.303Z,22.71
2023-05-10T11:31:50.904Z,22.83
2023-05-10T11:34:25.131Z,22.89
2023-05-10T11:36:54.993Z,22.67
2023-05-10T11:39:27.717Z,22.52
2023-05-10T11:41:56.189Z,23.19
2023-05-10T11:44:24.147Z,23.02
2023-05-10T11:46:51.793Z,22.57
2023-05-10T11:49:19.703Z,21.96
2023-05-10T11:51:48.145Z,22.10
2023-05-10T11:54:15.748Z,22.17
2023-05-10T11:56:43.485Z,22.86
2023-05-10T11:59:11.194Z,23.39
2023-05-10T12:01:38.781Z,22.52
2023-05-10T12:04:07.089Z,22.04
2023-05-10T12:06:42.152Z,21.82
2023-05-10T12:09:09.901Z,22.07
2023-05-10T12:11:44.311Z,21.76
2023-05-10T12:14:12.602Z,21.32
2023-05-10T12:16:40.071Z,20.93
2023-05-10T12:19:07.706Z,21.04
2023-05-10T12:21:35.654Z,21.23
2023-05-10T12:24:04.816Z,21.08
2023-05-10T12:26:33.340Z,21.09
2023-05-10T12:29:21.347Z,20.95
2023-05-10T12:31:56.915Z,21.27
2023-05-10T12:34:35.297Z,22.32
2023-05-10T12:37:04.064Z,22.72
2023-05-10T12:39:45.842Z,22.23
2023-05-10T12:42:13.328Z,21.69
2023-05-10T12:44:41.278Z,21.82
2023-05-10T12:47:08.697Z,21.16
2023-05-10T12:49:36.460Z,21.03
2023-05-10T12:52:04.406Z,20.58
2023-05-10T12:54:32.294Z,20.81
2023-05-10T12:57:00.200Z,20.70
2023-05-10T12:59:27.980Z,20.45
2023-05-10T13:01:55.491Z,20.62
2023-05-10T13:04:23.009Z,20.66
2023-05-10T13:06:50.801Z,20.22
2023-05-10T13:09:18.245Z,20.09
2023-05-10T13:11:46.575Z,19.75
2023-05-10T13:14:14.445Z,19.78
2023-05-10T13:16:41.955Z,19.87
2023-05-10T13:19:09.703Z,19.91
2023-05-10T13:21:37.980Z,19.72
2023-05-10T13:24:06.715Z,19.95
2023-05-10T13:26:34.419Z,19.97
2023-05-10T13:29:02.185Z,20.11
2023-05-10T13:31:29.758Z,20.15
2023-05-10T13:33:57.297Z,19.98
2023-05-10T13:36:25.065Z,20.07
2023-05-10T13:38:52.472Z,20.58
2023-05-10T13:41:20.066Z,20.52
2023-05-10T13:43:49.797Z,20.17
2023-05-10T13:46:17.221Z,19.74
2023-05-10T13:48:44.660Z,19.80
2023-05-10T13:51:12.474Z,19.84
2023-05-10T13:53:40.015Z,19.85
2023-05-10T13:56:07.565Z,19.83
2023-05-10T13:58:36.800Z,19.86
2023-05-10T14:01:05.829Z,19.91
2023-05-10T14:03:33.911Z,20.23
2023-05-10T14:06:01.511Z,20.09
2023-05-10T14:08:29.034Z,21.42
2023-05-10T14:10:57.956Z,21.11
2023-05-10T14:13:26.001Z,21.05
2023-05-10T14:15:55.000Z,20.97
2023-05-10T14:18:22.958Z,20.93
2023-05-10T14:20:50.538Z,20.86
2023-05-10T14:23:18.072Z,21.15
2023-05-10T14:25:46.139Z,21.45
2023-05-10T14:28:13.830Z,21.14
2023-05-10T14:30:41.284Z,20.71
2023-05-10T14:33:09.126Z,20.78
2023-05-10T14:35:37.109Z,20.43
2023-05-10T14:38:05.110Z,20.27
2023-05-10T14:40:33.188Z,20.01
2023-05-10T14:43:00.729Z,19.99
2023-05-10T14:45:28.397Z,20.12
2023-05-10T14:47:56.266Z,20.04
2023-05-10T14:50:35.878Z,20.02
2023-05-10T14:53:05.129Z,20.25
2023-05-10T14:55:33.714Z,20.18
2023-05-10T14:58:01.231Z,20.14
2023-05-10T15:00:30.473Z,19.98
2023-05-10T15:02:58.653Z,20.04
2023-05-10T15:05:26.889Z,20.12
2023-05-10T15:07:55.259Z,20.20
2023-05-10T15:10:23.371Z,20.00
2023-05-10T15:12:51.438Z,19.64
2023-05-10T15:15:19.368Z,19.91
2023-05-10T15:17:47.137Z,19.65
2023-05-10T15:20:15.054Z,19.95
2023-05-10T15:22:42.847Z,19.90
2023-05-10T15:25:10.859Z,19.83
2023-05-10T15:27:38.472Z,20.01
2023-05-10T15:30:07.471Z,20.06
2023-05-10T15:32:34.951Z,19.79
2023-05-10T15:35:03.524Z,19.80
2023-05-10T15:37:31.267Z,19.75
2023-05-10T15:40:04.421Z,19.57
2023-05-10T15:42:33.005Z,19.43
2023-05-10T15:45:00.418Z,19.39
2023-05-10T15:47:31.292Z,19.42
2023-05-10T15:49:59.039Z,19.42
2023-05-10T15:52:26.620Z,19.31
2023-05-10T15:54:54.085Z,19.36
2023-05-10T15:57:21.914Z,19.44
2023-05-10T15:59:49.468Z,19.32
2023-05-10T16:02:17.668Z,19.32
2023-05-10T16:04:45.839Z,19.10
2023-05-10T16:07:13.366Z,19.12
2023-05-10T16:09:41.322Z,19.07
2023-05-10T16:12:09.173Z,19.00
2023-05-10T16:14:36.645Z,18.93
2023-05-10T16:17:04.788Z,19.06
2023-05-10T16:19:32.840Z,18.93
2023-05-10T16:22:00.595Z,18.82
2023-05-10T16:24:28.271Z,18.70
2023-05-10T16:26:56.269Z,18.57
2023-05-10T16:29:23.694Z,18.49
2023-05-10T16:31:51.088Z,18.18
2023-05-10T16:34:20.561Z,18.32
2023-05-10T16:36:48.003Z,18.28
2023-05-10T16:39:15.456Z,18.19
2023-05-10T16:41:43.335Z,18.10
2023-05-10T16:44:10.893Z,18.06
2023-05-10T16:46:38.334Z,18.01
2023-05-10T16:49:06.814Z,18.00
2023-05-10T16:51:34.260Z,17.99
2023-05-10T16:54:01.686Z,17.94
2023-05-10T16:56:29.464Z,17.78
2023-05-10T16:58:56.938Z,17.84
2023-05-10T17:01:26.549Z,17.79
2023-05-10T17:03:54.933Z,17.72
2023-05-10T17:06:22.404Z,17.71
2023-05-10T17:08:49.876Z,17.71
2023-05-10T17:11:19.912Z,17.58
2023-05-10T17:13:47.969Z,17.56
2023-05-10T17:16:15.657Z,17.48
2023-05-10T17:18:45.818Z,17.15
2023-05-10T17:21:13.359Z,17.34
2023-05-10T17:23:40.864Z,17.24
2023-05-10T17:26:08.872Z,17.20
2023-05-10T17:28:36.289Z,17.11
2023-05-10T17:31:04.034Z,17.07
2023-05-10T17:33:31.736Z,16.78
2023-05-10T17:35:59.194Z,16.97
2023-05-10T17:38:26.658Z,16.70
2023-05-10T17:40:54.940Z,16.89
2023-05-10T17:43:23.489Z,16.82
2023-05-10T17:45:51.109Z,16.76
2023-05-10T17:48:18.965Z,16.72
2023-05-10T17:50:46.376Z,16.69
2023-05-10T17:53:13.786Z,16.64
2023-05-10T17:55:42.265Z,16.58
2023-05-10T17:58:11.587Z,16.29
2023-05-10T18:00:39.185Z,16.47
2023-05-10T18:03:07.149Z,16.43
2023-05-10T18:05:39.090Z,16.12
2023-05-10T18:08:07.544Z,16.09
2023-05-10T18:10:36.087Z,16.24
2023-05-10T18:13:06.892Z,16.19
2023-05-10T18:15:35.879Z,16.11
2023-05-10T18:18:04.529Z,16.05
2023-05-10T18:20:32.056Z,16.00
2023-05-10T18:22:59.797Z,15.90
2023-05-10T18:25:27.406Z,15.84
2023-05-10T18:27:55.002Z,15.77
2023-05-10T18:30:23.093Z,15.68
2023-05-10T18:32:50.828Z,15.56
2023-05-10T18:35:18.745Z,15.48
2023-05-10T18:37:47.204Z,15.46
2023-05-10T18:40:17.305Z,15.40
2023-05-10T18:42:46.627Z,15.33
2023-05-10T18:45:14.900Z,15.29
2023-05-10T18:47:42.971Z,15.24
2023-05-10T18:50:11.039Z,15.13
2023-05-10T18:52:38.768Z,15.06
2023-05-10T18:55:07.051Z,14.99
2023-05-10T18:57:41.216Z,14.96
2023-05-10T19:00:12.237Z,14.87
2023-05-10T19:02:40.554Z,14.68
2023-05-10T19:05:08.725Z,14.55
2023-05-10T19:07:37.011Z,14.50
2023-05-10T19:10:05.039Z,14.13
2023-05-10T19:12:32.970Z,14.35
2023-05-10T19:15:01.496Z,14.35
2023-05-10T19:17:30.264Z,14.35
2023-05-10T19:19:59.274Z,14.29
2023-05-10T19:22:44.885Z,14.35
2023-05-10T19:25:16.893Z,14.33
2023-05-10T19:27:45.102Z,14.28
2023-05-10T19:30:12.917Z,14.26
2023-05-10T19:32:44.179Z,14.23
2023-05-10T19:35:13.212Z,14.20
2023-05-10T19:37:45.916Z,14.16
2023-05-10T19:40:15.955Z,14.15
2023-05-10T19:42:43.515Z,14.12
2023-05-10T19:45:12.074Z,13.80
2023-05-10T19:47:40.294Z,13.78
2023-05-10T19:50:08.608Z,14.00
2023-05-10T19:52:36.386Z,13.95
2023-05-10T19:55:05.203Z,13.91
2023-05-10T19:57:33.008Z,13.86
2023-05-10T20:00:00.546Z,13.68
2023-05-10T20:02:28.289Z,13.79
2023-05-10T20:04:56.244Z,13.76
2023-05-10T20:07:23.667Z,13.71
2023-05-10T20:09:51.260Z,13.68
2023-05-10T20:12:19.075Z,13.68
2023-05-10T20:14:46.578Z,13.65
2023-05-10T20:17:14.066Z,13.60
2023-05-10T20:19:41.849Z,13.56
2023-05-10T20:22:09.496Z,13.52
2023-05-10T20:24:37.036Z,13.24
2023-05-10T20:27:04.865Z,13.48
2023-05-10T20:29:32.687Z,13.13
2023-05-10T20:32:00.306Z,13.37
2023-05-10T20:34:28.166Z,13.39
2023-05-10T20:36:55.569Z,13.35
2023-05-10T20:39:23.163Z,13.31
2023-05-10T20:41:54.585Z,13.28
2023-05-10T20:44:22.119Z,13.24
2023-05-10T20:46:49.571Z,13.24
2023-05-10T20:49:17.643Z,13.18
2023-05-10T20:51:45.107Z,12.91
2023-05-10T20:54:12.512Z,13.14
2023-05-10T20:56:40.189Z,13.09
2023-05-10T20:59:07.640Z,12.78
2023-05-10T21:01:35.120Z,13.01
2023-05-10T21:04:03.523Z,12.99
2023-05-10T21:06:32.046Z,12.94
2023-05-10T21:08:59.484Z,12.94
2023-05-10T21:11:27.197Z,12.89
2023-05-10T21:13:54.716Z,12.87
2023-05-10T21:16:22.188Z,12.84
2023-05-10T21:18:49.903Z,12.82
2023-05-10T21:21:17.352Z,12.52
2023-05-10T21:23:47.716Z,12.76
2023-05-10T21:26:16.307Z,12.76
2023-05-10T21:28:44.736Z,12.74
2023-05-10T21:31:12.427Z,12.43
2023-05-10T21:33:40.711Z,12.72
2023-05-10T21:36:08.539Z,12.70
2023-05-10T21:38:36.085Z,12.66
2023-05-10T21:41:07.846Z,12.56
2023-05-10T21:43:35.287Z,12.68
2023-05-10T21:46:03.055Z,12.62
2023-05-10T21:48:30.937Z,12.60
2023-05-10T21:50:59.107Z,12.58
2023-05-10T21:53:26.736Z,12.54
2023-05-10T21:55:56.292Z,12.52
2023-05-10T21:58:23.923Z,12.13
2023-05-10T22:00:52.039Z,12.16
2023-05-10T22:03:19.928Z,12.45
2023-05-10T22:05:47.483Z,12.42
2023-05-10T22:08:14.974Z,12.39
2023-05-10T22:10:42.683Z,12.36
2023-05-10T22:13:10.091Z,12.29
2023-05-10T22:15:37.703Z,12.31
2023-05-10T22:18:05.652Z,11.96
2023-05-10T22:20:33.550Z,12.14
2023-05-10T22:23:01.075Z,11.88
2023-05-10T22:25:28.787Z,11.81
2023-05-10T22:27:56.247Z,11.67
2023-05-10T22:30:23.820Z,11.65
2023-05-10T22:32:51.684Z,11.54
2023-05-10T22:35:19.334Z,11.46
2023-05-10T22:37:47.333Z,11.45
2023-05-10T22:40:15.366Z,11.39
2023-05-10T22:42:42.950Z,11.34
2023-05-10T22:45:10.901Z,11.18
2023-05-10T22:47:38.795Z,11.04
2023-05-10T22:50:07.003Z,10.78
2023-05-10T22:52:34.574Z,11.03
2023-05-10T22:55:02.639Z,10.90
2023-05-10T22:57:31.026Z,10.63
2023-05-10T22:59:58.671Z,10.94
2023-05-10T23:02:27.270Z,10.90
2023-05-10T23:04:54.775Z,10.53
2023-05-10T23:07:22.554Z,10.81
2023-05-10T23:09:50.303Z,10.77
2023-05-10T23:12:17.925Z,10.73
2023-05-10T23:14:46.655Z,10.72
2023-05-10T23:17:14.592Z,10.37
2023-05-10T23:19:42.056Z,10.57
2023-05-10T23:22:10.029Z,10.51
2023-05-10T23:24:39.214Z,10.23
2023-05-10T23:27:06.699Z,10.50
2023-05-10T23:29:34.797Z,10.14
2023-05-10T23:32:02.545Z,10.45
2023-05-10T23:34:30.101Z,10.35
2023-05-10T23:36:57.561Z,10.31
2023-05-10T23:39:25.340Z,10.11
2023-05-10T23:41:52.860Z,10.26
2023-05-10T23:44:20.268Z,10.22
2023-05-10T23:46:48.023Z,10.09
2023-05-10T23:49:15.511Z,10.12
2023-05-10T23:51:42.999Z,10.13
2023-05-10T23:54:10.855Z,10.10
2023-05-10T23:56:38.408Z,10.08
2023-05-10T23:59:06.184Z,10.06
